Time;durP1;ratioP1;P1;durP2;ratioP2;P2;SDS_P1;SDS_P2;PMS_P1;PMS_P2;Temp;Humidity;BMP_temperature;BMP_pressure;BME280_temperature;BME280_humidity;BME280_pressure;Samples;Min_cycle;Max_cycle;Signal;HPM_P1;HPM_P2
2022/09/30 04:05:41;;;;;;;5.82;4.55;;;7.20;99.90;;;;;;5050428;22;20288;-68
2022/09/30 04:08:07;;;;;;;5.00;4.00;;;7.20;99.90;;;;;;5016738;28;20539;-68
2022/09/30 04:10:32;;;;;;;5.67;4.17;;;7.10;99.90;;;;;;5015082;28;20186;-69
2022/09/30 04:12:58;;;;;;;6.33;4.83;;;7.10;99.90;;;;;;5016252;28;20452;-67
2022/09/30 04:15:24;;;;;;;5.87;4.10;;;7.10;99.90;;;;;;5017019;28;20190;-69
2022/09/30 04:17:49;;;;;;;7.83;5.60;;;7.10;99.90;;;;;;5016698;28;20171;-69
2022/09/30 04:20:15;;;;;;;6.77;5.80;;;7.00;99.90;;;;;;5016656;28;20181;-69
2022/09/30 04:22:40;;;;;;;5.33;4.83;;;7.00;99.90;;;;;;5014978;28;20171;-68
2022/09/30 04:25:06;;;;;;;5.10;4.63;;;7.00;99.90;;;;;;5009090;28;20557;-68
2022/09/30 04:27:32;;;;;;;5.40;4.90;;;7.00;99.90;;;;;;4996910;28;20253;-66
2022/09/30 04:29:58;;;;;;;6.40;5.07;;;7.00;99.90;;;;;;4996711;28;20209;-67
2022/09/30 04:32:24;;;;;;;5.77;5.10;;;7.00;99.90;;;;;;4996444;28;20202;-68
2022/09/30 04:34:50;;;;;;;5.65;5.15;;;6.90;99.90;;;;;;4994976;28;20195;-69
2022/09/30 04:37:16;;;;;;;5.28;4.20;;;6.90;99.90;;;;;;4996842;28;20171;-69
2022/09/30 04:39:43;;;;;;;16.13;6.20;;;7.00;99.90;;;;;;4995632;28;20179;-68
2022/09/30 04:42:08;;;;;;;5.20;4.20;;;7.00;99.90;;;;;;4996550;28;20533;-69
2022/09/30 04:44:35;;;;;;;18.63;5.20;;;7.00;99.90;;;;;;4978580;28;20202;-68
2022/09/30 04:47:00;;;;;;;9.75;4.60;;;7.00;99.90;;;;;;4996582;28;20202;-68
2022/09/30 04:49:26;;;;;;;8.53;5.13;;;6.90;99.90;;;;;;4996517;28;20195;-68
2022/09/30 04:51:52;;;;;;;5.20;4.23;;;6.90;99.90;;;;;;4998173;28;20225;-69
2022/09/30 04:54:18;;;;;;;5.30;4.00;;;6.90;99.90;;;;;;5015344;28;20687;-67
2022/09/30 04:56:43;;;;;;;4.50;3.80;;;6.90;99.90;;;;;;5015811;28;20166;-67
2022/09/30 04:59:09;;;;;;;4.87;4.27;;;6.90;99.90;;;;;;5015807;28;20179;-67
2022/09/30 05:01:36;;;;;;;3.80;3.50;;;6.80;99.90;;;;;;5015508;28;20171;-68
2022/09/30 05:04:02;;;;;;;4.53;3.70;;;6.90;99.90;;;;;;5015067;28;20194;-68
2022/09/30 05:06:27;;;;;;;6.13;3.33;;;6.80;99.90;;;;;;5014637;28;20186;-68
2022/09/30 05:08:53;;;;;;;7.60;5.00;;;6.80;99.90;;;;;;5015526;28;20178;-69
2022/09/30 05:11:20;;;;;;;4.60;4.20;;;6.80;99.90;;;;;;5015462;28;20218;-69
2022/09/30 05:13:47;;;;;;;23.88;7.03;;;6.80;99.90;;;;;;5014794;28;20212;-69
2022/09/30 05:16:13;;;;;;;11.63;5.10;;;6.80;99.90;;;;;;5015388;28;20168;-69
2022/09/30 05:18:41;;;;;;;5.65;4.55;;;6.80;99.90;;;;;;5015344;28;20275;-69
2022/09/30 05:21:07;;;;;;;4.32;3.92;;;6.70;99.90;;;;;;5015019;28;20187;-69
2022/09/30 05:23:33;;;;;;;6.40;4.47;;;6.70;99.90;;;;;;4995421;28;20191;-69
2022/09/30 05:25:59;;;;;;;11.33;7.47;;;6.60;99.90;;;;;;4995478;28;20405;-70
2022/09/30 05:28:25;;;;;;;4.18;3.75;;;6.70;99.90;;;;;;4995558;28;20621;-69
2022/09/30 05:31:00;;;;;;;5.07;3.30;;;6.70;99.90;;;;;;4995170;28;20249;-69
2022/09/30 05:33:28;;;;;;;4.95;4.50;;;6.70;99.90;;;;;;4994938;28;20499;-69
2022/09/30 05:35:54;;;;;;;3.70;3.35;;;6.70;99.90;;;;;;4995759;28;20586;-70
2022/09/30 05:38:20;;;;;;;6.20;3.72;;;6.70;99.90;;;;;;4995322;28;20262;-70
2022/09/30 05:40:46;;;;;;;4.83;3.90;;;6.70;99.90;;;;;;4995301;28;20254;-68
2022/09/30 05:43:11;;;;;;;6.40;5.40;;;6.70;99.90;;;;;;4994788;28;20675;-69
2022/09/30 05:45:38;;;;;;;4.37;3.53;;;6.70;99.90;;;;;;4995353;28;20637;-68
2022/09/30 05:48:03;;;;;;;6.43;4.78;;;6.70;99.90;;;;;;4994991;28;20170;-69
2022/09/30 05:50:29;;;;;;;4.87;4.17;;;6.60;99.90;;;;;;4995519;28;20241;-69
2022/09/30 05:52:56;;;;;;;5.38;4.88;;;6.70;99.90;;;;;;5004478;28;20256;-67
2022/09/30 05:55:23;;;;;;;4.55;4.15;;;6.60;99.90;;;;;;5014760;28;20312;-65
2022/09/30 05:57:50;;;;;;;4.03;3.63;;;6.60;99.90;;;;;;4997318;28;20251;-64
2022/09/30 06:00:17;;;;;;;3.92;3.45;;;6.60;99.90;;;;;;5014752;28;20167;-65
2022/09/30 06:02:43;;;;;;;3.70;3.15;;;6.70;99.90;;;;;;5014015;28;20174;-66
2022/09/30 06:05:09;;;;;;;11.93;6.40;;;6.80;99.90;;;;;;5006080;28;20384;-65
2022/09/30 06:07:36;;;;;;;5.00;4.35;;;6.80;99.90;;;;;;4994834;28;20193;-65
2022/09/30 06:10:04;;;;;;;5.78;5.20;;;6.80;99.90;;;;;;4994911;28;20178;-66
2022/09/30 06:12:29;;;;;;;7.93;4.90;;;6.90;99.90;;;;;;4994628;28;20310;-64
2022/09/30 06:14:55;;;;;;;6.70;5.40;;;6.90;99.90;;;;;;4994816;28;20277;-65
2022/09/30 06:17:22;;;;;;;7.93;5.10;;;7.00;99.90;;;;;;4976835;28;20182;-64
2022/09/30 06:19:51;;;;;;;7.20;5.60;;;7.10;99.90;;;;;;5001414;28;20506;-64
2022/09/30 06:22:17;;;;;;;13.32;7.65;;;7.10;99.90;;;;;;5014012;28;20174;-65
2022/09/30 06:24:43;;;;;;;10.50;5.53;;;7.10;99.90;;;;;;5013676;28;20204;-65
2022/09/30 06:27:08;;;;;;;6.82;5.20;;;7.20;99.90;;;;;;5014214;28;20404;-64
2022/09/30 06:29:34;;;;;;;7.17;5.60;;;7.30;99.90;;;;;;5014145;28;20174;-68
2022/09/30 06:32:00;;;;;;;7.10;4.80;;;7.30;99.90;;;;;;5008429;28;20183;-67
2022/09/30 06:34:26;;;;;;;4.00;3.60;;;7.40;99.90;;;;;;4993935;28;20206;-67
2022/09/30 06:36:54;;;;;;;5.50;4.37;;;7.40;99.90;;;;;;4977103;28;20647;-69
2022/09/30 06:39:19;;;;;;;6.97;4.53;;;7.50;99.90;;;;;;4994417;28;20178;-68
2022/09/30 06:41:45;;;;;;;7.27;4.43;;;7.70;99.90;;;;;;4994205;28;20163;-68
2022/09/30 06:44:14;;;;;;;5.10;4.60;;;7.80;99.90;;;;;;4976329;28;20214;-70
2022/09/30 06:46:40;;;;;;;5.45;4.10;;;7.90;99.90;;;;;;4994491;28;20781;-70
2022/09/30 06:49:06;;;;;;;5.67;5.10;;;7.90;99.90;;;;;;4994142;28;20172;-70
2022/09/30 06:51:35;;;;;;;6.07;5.45;;;7.80;99.90;;;;;;4976670;28;20176;-68
2022/09/30 06:54:00;;;;;;;6.38;5.13;;;8.00;99.90;;;;;;4993485;28;20282;-70
2022/09/30 06:56:27;;;;;;;9.10;5.13;;;8.10;99.90;;;;;;4993767;28;20258;-70
2022/09/30 06:58:52;;;;;;;6.43;5.25;;;8.30;99.90;;;;;;4994044;28;20837;-68
2022/09/30 07:01:19;;;;;;;10.00;6.67;;;8.40;99.90;;;;;;4997701;28;20203;-69
2022/09/30 07:03:45;;;;;;;7.95;5.95;;;8.40;99.90;;;;;;5012590;28;20240;-71
2022/09/30 07:06:13;;;;;;;3.78;3.47;;;8.50;99.90;;;;;;5013425;28;20558;-68
2022/09/30 07:08:40;;;;;;;4.72;4.20;;;8.30;99.90;;;;;;4995940;28;20197;-71
2022/09/30 07:11:13;;;;;;;5.47;4.80;;;8.30;99.90;;;;;;5008441;28;20226;-68
2022/09/30 07:13:44;;;;;;;5.35;4.65;;;8.40;99.90;;;;;;4976089;28;20226;-69
2022/09/30 07:16:10;;;;;;;11.60;5.07;;;8.50;99.90;;;;;;4998915;28;20183;-69
2022/09/30 07:18:37;;;;;;;5.22;4.72;;;8.30;99.90;;;;;;5013572;28;20241;-69
2022/09/30 07:21:03;;;;;;;10.90;5.80;;;8.30;99.90;;;;;;5013507;28;20587;-68
2022/09/30 07:23:30;;;;;;;5.28;4.78;;;8.30;99.90;;;;;;5013119;28;20198;-67
2022/09/30 07:25:59;;;;;;;9.80;7.15;;;8.40;99.90;;;;;;5013157;28;20167;-66
2022/09/30 07:28:30;;;;;;;7.53;5.75;;;8.50;99.90;;;;;;5013609;28;20167;-68
2022/09/30 07:30:57;;;;;;;5.60;5.03;;;8.60;99.90;;;;;;5007451;28;20180;-68
2022/09/30 07:33:25;;;;;;;14.82;5.60;;;8.90;99.90;;;;;;4993356;28;20198;-67
2022/09/30 07:35:55;;;;;;;7.32;5.25;;;9.00;99.90;;;;;;4993645;28;20171;-69
2022/09/30 07:38:23;;;;;;;6.90;4.65;;;9.10;99.90;;;;;;4993825;28;20172;-70
2022/09/30 07:41:15;;;;;;;6.80;5.70;;;9.30;99.90;;;;;;4998750;28;20167;-70
2022/09/30 07:43:45;;;;;;;5.25;4.30;;;9.60;99.90;;;;;;5005149;28;20743;-69
2022/09/30 07:46:19;;;;;;;6.70;5.90;;;9.70;99.90;;;;;;5012608;28;20179;-67
2022/09/30 07:48:49;;;;;;;6.07;5.10;;;9.90;99.90;;;;;;5007149;28;20212;-67
2022/09/30 07:51:39;;;;;;;6.50;5.87;;;10.10;99.90;;;;;;4995591;28;20932;-68
2022/09/30 07:54:14;;;;;;;9.77;6.30;;;10.30;99.90;;;;;;5012678;28;20800;-68
2022/09/30 07:56:42;;;;;;;7.17;6.13;;;10.50;99.90;;;;;;5013632;28;20401;-68
2022/09/30 07:59:10;;;;;;;5.57;4.50;;;10.90;99.90;;;;;;5013151;28;20401;-69
2022/09/30 08:01:35;;;;;;;5.90;5.30;;;11.20;99.90;;;;;;5012421;28;20417;-70
2022/09/30 08:04:04;;;;;;;6.57;4.30;;;11.40;99.90;;;;;;5012078;28;20423;-71
2022/09/30 08:06:31;;;;;;;5.03;4.50;;;11.50;99.90;;;;;;5013156;28;20379;-68
2022/09/30 08:08:57;;;;;;;6.53;5.03;;;11.60;99.90;;;;;;5013246;28;20404;-70
2022/09/30 08:11:24;;;;;;;5.30;4.80;;;11.70;99.90;;;;;;5005152;28;20909;-68
2022/09/30 08:13:54;;;;;;;5.33;4.60;;;11.80;99.90;;;;;;4994289;28;20465;-69
2022/09/30 08:16:21;;;;;;;6.40;5.40;;;12.00;99.90;;;;;;4996831;28;20841;-69
2022/09/30 08:18:47;;;;;;;5.83;5.10;;;12.20;99.90;;;;;;4996941;28;20402;-68
2022/09/30 08:21:13;;;;;;;5.90;5.13;;;12.50;99.90;;;;;;4996796;28;20453;-69
2022/09/30 08:23:39;;;;;;;5.83;4.37;;;12.70;99.90;;;;;;4994442;28;20485;-69
2022/09/30 08:26:07;;;;;;;5.60;4.90;;;12.90;99.90;;;;;;5001728;28;20417;-69
2022/09/30 08:28:33;;;;;;;5.40;4.90;;;13.20;99.90;;;;;;5014483;28;20412;-68
2022/09/30 08:31:11;;;;;;;5.67;4.93;;;13.60;99.90;;;;;;5014558;28;20498;-70
2022/09/30 08:33:38;;;;;;;6.80;5.50;;;13.80;99.90;;;;;;5014125;28;20459;-69
2022/09/30 08:36:17;;;;;;;5.33;4.53;;;13.80;99.90;;;;;;5014592;28;20370;-69
2022/09/30 08:38:43;;;;;;;6.20;5.60;;;14.00;99.90;;;;;;5016059;28;20416;-69
2022/09/30 08:41:34;;;;;;;7.00;5.30;;;14.30;99.90;;;;;;5006489;28;20418;-70
2022/09/30 08:44:52;;;;;;;5.33;4.83;;;14.40;99.90;;;;;;4978602;28;20908;-69
2022/09/30 08:47:53;;;;;;;4.97;4.57;;;14.60;99.90;;;;;;4979601;28;20489;-69
2022/09/30 08:50:25;;;;;;;5.20;4.67;;;;;;;;;;4996591;28;20879;-68
2022/09/30 08:52:56;;;;;;;6.30;5.63;;;14.80;99.90;;;;;;4995849;28;20807;-70
2022/09/30 08:55:32;;;;;;;4.93;4.53;;;14.90;99.90;;;;;;4996793;28;20425;-68
2022/09/30 08:57:57;;;;;;;8.40;5.90;;;15.10;99.90;;;;;;4996436;28;20746;-69
2022/09/30 09:00:24;;;;;;;7.97;5.93;;;15.30;99.90;;;;;;4996237;28;20402;-69
2022/09/30 09:03:02;;;;;;;7.33;5.83;;;15.40;99.90;;;;;;4995909;28;20255;-69
2022/09/30 09:05:50;;;;;;;6.03;5.43;;;15.70;99.90;;;;;;4995776;28;20960;-68
2022/09/30 09:08:23;;;;;;;6.80;5.70;;;15.80;99.90;;;;;;4996429;28;20400;-68
2022/09/30 09:11:02;;;;;;;7.40;5.60;;;16.10;99.90;;;;;;5006612;28;20429;-69
2022/09/30 09:13:33;;;;;;;6.80;5.70;;;16.60;99.90;;;;;;4997525;28;20544;-69
2022/09/30 09:16:02;;;;;;;6.87;5.13;;;17.00;99.90;;;;;;5015558;28;20406;-68
2022/09/30 09:18:33;;;;;;;6.17;5.53;;;17.50;99.90;;;;;;5015424;28;20402;-68
2022/09/30 09:21:12;;;;;;;6.07;5.47;;;18.10;99.90;;;;;;4997818;28;20410;-69
2022/09/30 09:23:38;;;;;;;6.70;6.00;;;18.80;99.90;;;;;;5014981;28;20405;-68
2022/09/30 09:26:04;;;;;;;6.70;6.10;;;;;;;;;;4999531;28;20745;-69
2022/09/30 09:28:35;;;;;;;6.10;5.57;;;;;;;;;;4995687;28;20262;-68
2022/09/30 09:31:03;;;;;;;4.97;4.57;;;19.70;98.80;;;;;;4995759;28;20407;-70
2022/09/30 09:33:38;;;;;;;7.13;5.87;;;21.10;95.30;;;;;;4995094;28;20464;-70
2022/09/30 09:36:04;;;;;;;6.60;5.67;;;21.60;94.20;;;;;;4995742;28;20713;-70
2022/09/30 09:38:37;;;;;;;5.43;5.03;;;21.70;92.90;;;;;;4996152;28;20389;-70
2022/09/30 09:41:25;;;;;;;7.57;6.83;;;21.90;92.40;;;;;;5009639;28;20172;-70
2022/09/30 09:44:01;;;;;;;8.93;4.90;;;22.30;92.90;;;;;;4994723;28;20435;-69
2022/09/30 09:46:38;;;;;;;5.73;5.27;;;22.70;92.10;;;;;;4995662;28;20393;-69
2022/09/30 09:49:19;;;;;;;9.40;5.73;;;23.00;91.40;;;;;;4995604;28;20381;-68
2022/09/30 09:51:53;;;;;;;6.40;5.80;;;23.00;90.90;;;;;;4995084;28;20964;-68
2022/09/30 09:54:21;;;;;;;6.20;4.47;;;22.80;91.30;;;;;;4994704;28;20436;-69
2022/09/30 09:56:46;;;;;;;6.00;5.40;;;22.70;91.40;;;;;;4995204;28;20389;-69
2022/09/30 09:59:15;;;;;;;5.07;4.67;;;22.70;91.00;;;;;;4997446;28;20414;-68
2022/09/30 10:01:46;;;;;;;7.00;5.27;;;22.50;90.90;;;;;;5002551;28;20175;-70
2022/09/30 10:04:23;;;;;;;5.23;4.80;;;22.40;90.90;;;;;;5007865;28;20433;-69
2022/09/30 10:06:58;;;;;;;3.80;3.50;;;22.30;91.50;;;;;;4996958;28;20443;-68
2022/09/30 10:09:33;;;;;;;4.60;4.20;;;22.40;91.50;;;;;;4992616;28;20417;-68
2022/09/30 10:12:05;;;;;;;5.00;4.50;;;22.80;91.10;;;;;;4995173;28;20412;-68
2022/09/30 10:14:34;;;;;;;4.60;4.20;;;23.20;90.30;;;;;;5013658;28;20957;-67
2022/09/30 10:17:03;;;;;;;4.40;4.10;;;23.50;90.00;;;;;;5014156;28;20388;-68
2022/09/30 10:19:31;;;;;;;4.30;3.90;;;23.70;89.00;;;;;;5014245;28;20475;-68
2022/09/30 10:22:10;;;;;;;4.53;4.13;;;23.80;87.90;;;;;;5014232;28;20410;-69
2022/09/30 10:24:37;;;;;;;3.80;3.50;;;23.80;85.90;;;;;;5013559;28;20408;-69
2022/09/30 10:27:04;;;;;;;3.50;2.73;;;23.80;85.60;;;;;;4994977;28;20423;-68
2022/09/30 10:29:34;;;;;;;3.90;3.60;;;23.70;85.10;;;;;;4994398;28;20401;-68
2022/09/30 10:32:05;;;;;;;3.30;3.07;;;23.60;83.30;;;;;;4981969;28;20487;-69
2022/09/30 10:34:35;;;;;;;3.00;2.77;;;;;;;;;;5013498;28;20446;-69
2022/09/30 10:37:08;;;;;;;3.70;3.13;;;23.60;84.30;;;;;;5012974;28;20467;-69
2022/09/30 10:39:40;;;;;;;2.23;1.93;;;22.80;78.60;;;;;;5014099;28;20749;-67
2022/09/30 10:42:17;;;;;;;2.37;2.20;;;22.50;78.00;;;;;;5014026;28;20880;-66
2022/09/30 10:45:00;;;;;;;2.60;2.30;;;22.50;78.60;;;;;;5013649;28;20422;-67
2022/09/30 10:47:26;;;;;;;1.70;1.60;;;22.40;80.20;;;;;;5002671;28;20415;-67
2022/09/30 10:50:05;;;;;;;2.10;1.93;;;22.60;80.70;;;;;;4994119;28;20442;-68
2022/09/30 10:52:36;;;;;;;2.00;1.50;;;22.70;76.70;;;;;;4994029;28;20442;-69
2022/09/30 10:55:07;;;;;;;1.70;1.60;;;22.60;77.00;;;;;;4994130;28;20402;-69
2022/09/30 10:57:35;;;;;;;2.13;1.93;;;22.60;77.50;;;;;;4994048;28;20506;-68
2022/09/30 11:00:21;;;;;;;2.10;1.90;;;22.60;78.30;;;;;;4994171;28;20404;-68
2022/09/30 11:03:01;;;;;;;1.90;1.80;;;22.30;78.90;;;;;;4991823;28;20392;-69
2022/09/30 11:05:37;;;;;;;3.00;1.70;;;22.00;78.90;;;;;;5013329;28;20428;-70
2022/09/30 11:08:09;;;;;;;1.57;1.47;;;21.50;78.00;;;;;;5013898;28;20410;-69
2022/09/30 11:11:18;;;;;;;1.37;1.27;;;20.90;78.00;;;;;;5013628;28;20437;-69
2022/09/30 11:14:03;;;;;;;2.90;1.80;;;20.10;79.50;;;;;;4969290;28;20572;-69
2022/09/30 11:16:38;;;;;;;2.10;2.00;;;19.20;81.50;;;;;;5005840;28;20487;-67
2022/09/30 11:19:20;;;;;;;2.23;1.70;;;18.70;84.30;;;;;;5007004;28;20425;-68
2022/09/30 11:21:52;;;;;;;1.43;1.30;;;18.40;84.30;;;;;;4985401;28;20431;-68
2022/09/30 11:24:40;;;;;;;3.10;1.37;;;18.20;83.30;;;;;;4975636;28;20469;-68
2022/09/30 11:27:33;;;;;;;1.20;1.20;;;17.80;84.80;;;;;;4993875;28;20409;-68
2022/09/30 11:30:14;;;;;;;1.27;1.00;;;17.50;86.30;;;;;;4993909;28;20421;-68
2022/09/30 11:32:47;;;;;;;1.30;1.20;;;17.30;85.80;;;;;;4993323;28;20461;-68
2022/09/30 11:35:24;;;;;;;2.00;1.47;;;17.20;87.20;;;;;;4993662;28;20450;-68
2022/09/30 11:37:59;;;;;;;1.37;1.27;;;17.10;89.30;;;;;;4993729;28;20782;-69
2022/09/30 11:40:42;;;;;;;1.53;1.30;;;17.00;89.60;;;;;;4993578;28;20400;-69
2022/09/30 11:43:20;;;;;;;2.00;1.40;;;16.90;90.20;;;;;;4993153;28;20411;-69
2022/09/30 11:45:57;;;;;;;1.40;1.30;;;16.90;90.50;;;;;;4993719;28;20411;-65
2022/09/30 11:49:04;;;;;;;1.33;1.20;;;17.00;90.90;;;;;;4994274;28;20417;-68
2022/09/30 11:52:03;;;;;;;1.43;1.33;;;17.10;90.50;;;;;;4959564;28;20499;-66
2022/09/30 11:54:47;;;;;;;1.10;1.10;;;17.00;90.60;;;;;;4996747;28;20466;-69
2022/09/30 11:57:28;;;;;;;1.20;1.20;;;16.90;88.60;;;;;;4997553;28;20410;-68
2022/09/30 12:00:09;;;;;;;1.33;1.20;;;16.90;89.20;;;;;;4997430;28;20403;-69
2022/09/30 12:02:38;;;;;;;1.33;1.30;;;16.90;90.40;;;;;;4996690;28;20385;-67
2022/09/30 12:05:13;;;;;;;0.87;0.87;;;16.90;88.30;;;;;;4997408;28;20457;-69
2022/09/30 12:07:45;;;;;;;1.47;1.37;;;17.00;88.30;;;;;;4997375;28;20420;-66
2022/09/30 12:10:29;;;;;;;1.27;1.17;;;17.00;87.50;;;;;;4997332;28;20403;-67
2022/09/30 12:13:03;;;;;;;2.10;1.40;;;17.00;87.20;;;;;;4996480;28;20544;-68
2022/09/30 12:15:30;;;;;;;1.57;1.20;;;17.00;89.00;;;;;;4996228;28;20445;-66
2022/09/30 12:18:11;;;;;;;1.03;0.93;;;17.10;90.10;;;;;;5015110;28;20417;-68
2022/09/30 12:20:58;;;;;;;1.93;1.80;;;17.20;90.10;;;;;;5015911;28;20409;-69
2022/09/30 12:23:34;;;;;;;2.23;2.13;;;17.20;90.30;;;;;;5014893;28;20828;-67
2022/09/30 12:26:02;;;;;;;1.33;1.23;;;17.00;90.40;;;;;;5016137;28;20407;-67
2022/09/30 12:31:50;;;;;;;1.30;1.20;;;16.50;91.00;;;;;;5015335;28;20882;-67
2022/09/30 12:34:25;;;;;;;2.63;1.60;;;16.40;91.70;;;;;;5013621;28;20993;-68
2022/09/30 12:37:07;;;;;;;1.50;1.40;;;16.20;91.70;;;;;;5014095;28;20456;-68
2022/09/30 12:40:08;;;;;;;3.20;1.87;;;16.10;91.90;;;;;;5014189;28;20414;-68
2022/09/30 12:42:44;;;;;;;1.43;1.33;;;15.90;92.10;;;;;;4983185;28;20516;-66
2022/09/30 12:45:37;;;;;;;1.60;1.00;;;15.90;91.80;;;;;;5012312;28;20432;-67
2022/09/30 12:48:07;;;;;;;0.83;0.83;;;15.80;91.60;;;;;;4995873;28;20445;-66
2022/09/30 12:50:44;;;;;;;1.10;1.03;;;15.70;91.40;;;;;;4996338;28;20415;-66
2022/09/30 12:53:25;;;;;;;1.70;1.60;;;15.60;91.40;;;;;;4978337;28;20458;-67
2022/09/30 12:55:52;;;;;;;2.07;1.37;;;15.60;91.30;;;;;;4996311;28;20402;-66
2022/09/30 12:58:22;;;;;;;1.40;1.10;;;15.60;91.40;;;;;;4996399;28;20419;-68
2022/09/30 13:01:05;;;;;;;1.17;1.17;;;15.60;91.60;;;;;;5004886;28;20448;-66
2022/09/30 13:04:11;;;;;;;1.30;1.30;;;15.60;91.80;;;;;;4981940;28;20783;-67
2022/09/30 13:06:45;;;;;;;1.10;1.10;;;15.50;92.00;;;;;;5001877;28;20456;-66
2022/09/30 13:09:57;;;;;;;1.23;1.00;;;15.50;92.00;;;;;;5015257;28;20414;-65
2022/09/30 13:12:38;;;;;;;1.00;1.00;;;15.50;92.30;;;;;;4954503;28;20385;-66
2022/09/30 13:15:21;;;;;;;3.80;2.63;;;15.50;92.30;;;;;;5015767;28;20425;-66
2022/09/30 13:17:47;;;;;;;2.27;2.13;;;15.70;92.60;;;;;;4996268;28;20414;-66
2022/09/30 13:20:55;;;;;;;1.67;1.57;;;15.80;92.40;;;;;;4995680;28;20977;-67
2022/09/30 13:23:41;;;;;;;1.97;1.57;;;16.00;92.10;;;;;;4995521;28;20176;-67
2022/09/30 13:26:22;;;;;;;1.40;1.30;;;16.30;91.70;;;;;;4995855;28;20398;-67
2022/09/30 13:28:49;;;;;;;1.50;1.40;;;16.40;91.20;;;;;;4995732;28;20416;-67
2022/09/30 13:31:25;;;;;;;1.60;1.50;;;16.50;91.20;;;;;;5006188;28;20428;-66
2022/09/30 13:34:03;;;;;;;1.27;1.17;;;16.60;91.30;;;;;;5014589;28;20463;-65
2022/09/30 13:36:39;;;;;;;1.50;1.37;;;16.80;90.90;;;;;;5015039;28;20450;-66
2022/09/30 13:39:34;;;;;;;1.23;1.17;;;16.80;90.30;;;;;;5015066;28;20959;-67
2022/09/30 13:42:07;;;;;;;1.23;1.17;;;16.80;90.30;;;;;;5005906;28;20507;-66
2022/09/30 13:44:55;;;;;;;11.47;6.40;;;16.80;90.20;;;;;;5014422;28;20428;-66
2022/09/30 13:47:34;;;;;;;4.97;3.40;;;16.80;90.30;;;;;;4995116;28;20775;-67
2022/09/30 13:50:12;;;;;;;2.50;1.87;;;16.90;90.10;;;;;;4995269;28;20765;-66
2022/09/30 13:52:40;;;;;;;1.27;1.17;;;16.80;89.90;;;;;;4995157;28;20408;-67
2022/09/30 13:55:34;;;;;;;1.00;1.00;;;16.90;88.90;;;;;;4995025;28;20525;-67
2022/09/30 13:58:25;;;;;;;1.27;1.13;;;16.80;88.10;;;;;;4995199;28;20488;-69
2022/09/30 14:01:03;;;;;;;1.20;1.10;;;16.70;88.40;;;;;;5006686;28;20417;-68
2022/09/30 14:04:03;;;;;;;0.83;0.83;;;16.70;88.50;;;;;;5014237;28;20406;-66
2022/09/30 14:06:40;;;;;;;1.30;1.20;;;16.60;89.40;;;;;;4982724;28;20436;-69
2022/09/30 14:09:31;;;;;;;1.60;1.50;;;16.50;89.10;;;;;;5011561;28;20465;-68
2022/09/30 14:12:29;;;;;;;1.77;1.67;;;16.50;89.10;;;;;;4986440;28;20385;-68
2022/09/30 14:15:19;;;;;;;1.97;1.30;;;16.40;89.60;;;;;;5006232;28;20490;-67
2022/09/30 14:18:03;;;;;;;0.90;0.90;;;16.30;90.20;;;;;;5000122;28;20409;-66
2022/09/30 14:21:05;;;;;;;1.30;1.20;;;16.20;90.00;;;;;;4996788;28;20742;-65
2022/09/30 14:23:31;;;;;;;3.20;1.97;;;16.20;90.10;;;;;;5003201;28;20439;-67
2022/09/30 14:26:18;;;;;;;3.27;1.40;;;16.10;90.10;;;;;;4998969;28;20773;-68
2022/09/30 14:29:06;;;;;;;1.40;1.33;;;16.10;90.50;;;;;;5014352;28;20306;-67
2022/09/30 14:31:32;;;;;;;1.20;1.20;;;16.10;91.50;;;;;;4995065;28;20427;-68
2022/09/30 14:33:58;;;;;;;1.43;1.33;;;16.10;91.20;;;;;;4994383;28;20459;-67
2022/09/30 14:36:25;;;;;;;1.80;1.70;;;16.10;90.90;;;;;;4994585;28;20411;-67
2022/09/30 14:38:55;;;;;;;1.70;1.60;;;16.20;91.20;;;;;;5013597;28;20420;-67
2022/09/30 14:41:22;;;;;;;1.57;1.47;;;16.20;91.30;;;;;;5005861;28;20541;-66
2022/09/30 14:43:52;;;;;;;4.10;2.40;;;16.30;91.50;;;;;;4993966;28;20849;-67
2022/09/30 14:46:37;;;;;;;2.53;1.90;;;16.40;91.80;;;;;;4994276;28;20550;-68
2022/09/30 14:49:08;;;;;;;1.47;1.30;;;16.50;91.60;;;;;;4994977;28;20434;-67
2022/09/30 14:51:42;;;;;;;1.30;1.20;;;16.50;91.60;;;;;;4994279;28;20428;-67
2022/09/30 14:54:29;;;;;;;1.17;1.17;;;16.60;91.30;;;;;;4997717;28;20842;-66
2022/09/30 14:56:57;;;;;;;1.47;1.40;;;16.60;91.10;;;;;;5013677;28;20397;-68
2022/09/30 14:59:35;;;;;;;1.00;1.00;;;16.60;91.20;;;;;;5013611;28;20523;-68
2022/09/30 15:02:19;;;;;;;1.40;1.30;;;16.70;91.30;;;;;;5014021;28;20502;-67
2022/09/30 15:04:50;;;;;;;1.10;1.00;;;16.70;91.20;;;;;;5009467;28;20461;-66
2022/09/30 15:07:15;;;;;;;1.60;1.53;;;16.70;91.10;;;;;;4994059;28;20409;-67
2022/09/30 15:09:45;;;;;;;1.60;1.30;;;16.70;91.40;;;;;;4994157;28;20414;-67
2022/09/30 15:12:21;;;;;;;1.70;1.30;;;16.70;91.40;;;;;;4993905;28;20647;-66
2022/09/30 15:14:51;;;;;;;1.53;1.37;;;16.60;91.30;;;;;;4993736;28;20476;-66
2022/09/30 15:17:22;;;;;;;1.40;1.30;;;16.50;91.30;;;;;;4995896;28;20408;-66
2022/09/30 15:19:49;;;;;;;1.20;1.10;;;16.50;91.00;;;;;;5013676;28;20516;-66
2022/09/30 15:22:17;;;;;;;1.40;1.30;;;16.30;91.00;;;;;;5013686;28;20773;-67
2022/09/30 15:24:43;;;;;;;2.33;1.07;;;16.30;91.10;;;;;;5016297;28;20482;-67
2022/09/30 15:27:20;;;;;;;1.43;1.03;;;16.10;90.60;;;;;;5005162;28;20439;-66
2022/09/30 15:29:59;;;;;;;2.03;1.83;;;16.10;90.90;;;;;;4998054;28;20428;-66
2022/09/30 15:32:32;;;;;;;1.80;1.50;;;16.00;90.80;;;;;;4998026;28;20422;-65
2022/09/30 15:35:15;;;;;;;1.60;1.50;;;15.90;90.80;;;;;;4997654;28;20448;-66
2022/09/30 15:37:42;;;;;;;2.20;2.10;;;15.90;91.10;;;;;;4997765;28;20408;-67
2022/09/30 15:43:06;;;;;;;1.43;1.37;;;15.80;91.40;;;;;;4997665;28;20514;-66
2022/09/30 15:45:33;;;;;;;1.07;1.00;;;15.80;91.50;;;;;;4997747;28;20440;-66
2022/09/30 15:48:01;;;;;;;1.40;1.30;;;15.80;91.70;;;;;;4980023;28;20461;-66
2022/09/30 15:50:38;;;;;;;1.60;1.50;;;15.70;91.80;;;;;;4997657;28;20418;-66
2022/09/30 15:53:13;;;;;;;12.23;6.30;;;15.60;91.90;;;;;;4996972;28;20485;-68
2022/09/30 15:55:48;;;;;;;4.47;2.77;;;15.60;92.00;;;;;;4997654;28;20441;-66
2022/09/30 15:58:38;;;;;;;1.53;1.33;;;15.50;92.20;;;;;;4997348;28;20411;-67
2022/09/30 16:01:15;;;;;;;1.30;1.20;;;15.50;92.10;;;;;;4997618;28;20440;-68
2022/09/30 16:03:53;;;;;;;1.00;1.00;;;15.40;92.00;;;;;;4998917;28;20445;-66
2022/09/30 16:06:52;;;;;;;1.60;1.10;;;15.40;92.20;;;;;;4999339;28;20800;-67
2022/09/30 16:09:24;;;;;;;2.30;1.33;;;15.30;92.20;;;;;;5011843;28;20417;-67
2022/09/30 16:12:04;;;;;;;1.70;1.60;;;15.30;92.30;;;;;;5008843;28;20461;-68
2022/09/30 16:14:40;;;;;;;1.00;1.00;;;15.30;92.40;;;;;;4996617;28;20536;-67
2022/09/30 16:17:13;;;;;;;3.40;1.93;;;15.20;92.30;;;;;;4997124;28;20402;-67
2022/09/30 16:19:39;;;;;;;2.17;1.97;;;15.10;92.30;;;;;;4996995;28;20550;-68
2022/09/30 16:22:05;;;;;;;2.03;1.73;;;15.10;92.50;;;;;;4996764;28;20450;-66
2022/09/30 16:24:31;;;;;;;1.60;1.50;;;15.00;92.60;;;;;;4996635;28;20200;-68
2022/09/30 16:27:21;;;;;;;1.30;1.30;;;14.90;92.90;;;;;;4997026;28;20414;-67
2022/09/30 16:29:46;;;;;;;1.33;1.23;;;14.90;93.00;;;;;;4990637;28;20423;-68
2022/09/30 16:32:13;;;;;;;1.37;1.27;;;14.80;93.10;;;;;;4996756;28;20414;-68
2022/09/30 16:34:39;;;;;;;1.60;1.50;;;14.80;93.30;;;;;;4998776;28;20206;-67
2022/09/30 16:37:13;;;;;;;2.47;2.27;;;14.70;93.40;;;;;;5015980;28;20493;-66
2022/09/30 16:39:39;;;;;;;1.80;1.70;;;14.60;93.60;;;;;;5016250;28;20767;-68
2022/09/30 16:42:05;;;;;;;2.10;1.70;;;14.50;93.80;;;;;;5016090;28;20404;-67
2022/09/30 16:44:34;;;;;;;1.40;1.30;;;14.50;93.80;;;;;;5015818;28;20201;-66
2022/09/30 16:47:02;;;;;;;1.83;1.63;;;14.40;93.90;;;;;;5002518;28;20835;-68
2022/09/30 16:49:28;;;;;;;2.50;2.23;;;14.30;94.10;;;;;;5010004;28;20425;-68
2022/09/30 16:51:54;;;;;;;2.40;1.80;;;14.20;94.70;;;;;;5005039;28;20431;-67
2022/09/30 16:54:19;;;;;;;2.80;1.23;;;14.10;94.80;;;;;;4995893;28;20207;-68
2022/09/30 16:56:45;;;;;;;1.57;1.47;;;14.10;94.90;;;;;;4998650;28;20186;-70
2022/09/30 16:59:15;;;;;;;1.50;1.40;;;14.00;95.30;;;;;;4996566;28;20175;-68
2022/09/30 17:01:42;;;;;;;1.40;1.30;;;13.90;95.90;;;;;;4996323;28;20179;-68
2022/09/30 17:04:08;;;;;;;1.70;1.60;;;13.80;96.10;;;;;;4996570;28;20478;-69
2022/09/30 17:06:35;;;;;;;1.37;1.37;;;13.80;96.40;;;;;;5015512;28;20890;-70
2022/09/30 17:09:01;;;;;;;2.00;1.90;;;13.80;96.50;;;;;;5015618;28;21054;-69
2022/09/30 17:11:32;;;;;;;1.67;1.57;;;13.70;96.40;;;;;;4995930;28;20924;-68
2022/09/30 17:13:59;;;;;;;1.70;1.60;;;13.60;96.30;;;;;;4995528;28;20536;-70
2022/09/30 17:16:25;;;;;;;2.30;1.93;;;13.60;96.50;;;;;;5015376;28;20404;-67
2022/09/30 17:18:51;;;;;;;2.30;2.10;;;13.50;97.00;;;;;;5003369;28;20462;-69
2022/09/30 17:21:21;;;;;;;2.63;2.43;;;13.40;97.20;;;;;;5015307;28;20444;-69
2022/09/30 17:23:47;;;;;;;1.80;1.70;;;13.30;97.70;;;;;;5000248;28;20791;-71
2022/09/30 17:26:13;;;;;;;2.00;1.80;;;13.30;98.30;;;;;;5004666;28;20432;-68
2022/09/30 17:28:39;;;;;;;2.13;2.03;;;13.20;98.90;;;;;;4997740;28;20420;-70
2022/09/30 17:31:07;;;;;;;2.77;2.57;;;13.20;99.60;;;;;;4996406;28;20481;-68